sensor_id;sensor_type;location;lat;lon;timestamp;temperature;humidity
52725;DHT22;38621;52.830;6.914;2023-03-13T00:01:36;8.80;99.90
52725;DHT22;38621;52.830;6.914;2023-03-13T00:04:02;8.80;99.90
52725;DHT22;38621;52.830;6.914;2023-03-13T00:06:30;8.80;99.90
52725;DHT22;38621;52.830;6.914;2023-03-13T00:08:57;8.80;99.90
52725;DHT22;38621;52.830;6.914;2023-03-13T00:11:25;8.80;99.90
52725;DHT22;38621;52.830;6.914;2023-03-13T00:13:56;8.80;99.90
52725;DHT22;38621;52.830;6.914;2023-03-13T00:16:22;8.70;99.90
52725;DHT22;38621;52.830;6.914;2023-03-13T00:18:49;8.70;99.90
52725;DHT22;38621;52.830;6.914;2023-03-13T00:21:17;8.70;99.90
52725;DHT22;38621;52.830;6.914;2023-03-13T00:23:43;8.70;99.90
52725;DHT22;38621;52.830;6.914;2023-03-13T00:26:11;8.70;99.90
52725;DHT22;38621;52.830;6.914;2023-03-13T00:28:38;8.70;99.90
52725;DHT22;38621;52.830;6.914;2023-03-13T00:31:07;8.70;99.90
52725;DHT22;38621;52.830;6.914;2023-03-13T00:33:39;8.70;99.90
52725;DHT22;38621;52.830;6.914;2023-03-13T00:36:07;8.70;99.90
52725;DHT22;38621;52.830;6.914;2023-03-13T00:38:34;8.70;99.90
52725;DHT22;38621;52.830;6.914;2023-03-13T00:41:11;8.70;99.90
52725;DHT22;38621;52.830;6.914;2023-03-13T00:43:37;8.70;99.90
52725;DHT22;38621;52.830;6.914;2023-03-13T00:46:04;8.60;99.90
52725;DHT22;38621;52.830;6.914;2023-03-13T00:48:30;8.60;99.90
52725;DHT22;38621;52.830;6.914;2023-03-13T00:50:56;8.60;99.90
52725;DHT22;38621;52.830;6.914;2023-03-13T00:53:21;8.60;99.90
52725;DHT22;38621;52.830;6.914;2023-03-13T00:56:05;8.50;99.90
52725;DHT22;38621;52.830;6.914;2023-03-13T00:58:34;8.50;99.90
52725;DHT22;38621;52.830;6.914;2023-03-13T01:01:15;8.50;99.90
52725;DHT22;38621;52.830;6.914;2023-03-13T01:03:43;8.50;99.90
52725;DHT22;38621;52.830;6.914;2023-03-13T01:06:12;8.50;99.90
52725;DHT22;38621;52.830;6.914;2023-03-13T01:08:38;8.50;99.90
52725;DHT22;38621;52.830;6.914;2023-03-13T01:11:16;8.50;99.90
52725;DHT22;38621;52.830;6.914;2023-03-13T01:13:43;8.50;99.90
52725;DHT22;38621;52.830;6.914;2023-03-13T01:16:14;8.50;99.90
52725;DHT22;38621;52.830;6.914;2023-03-13T01:18:43;8.50;99.90
52725;DHT22;38621;52.830;6.914;2023-03-13T01:21:10;8.50;99.90
52725;DHT22;38621;52.830;6.914;2023-03-13T01:23:36;8.50;99.90
52725;DHT22;38621;52.830;6.914;2023-03-13T01:26:03;8.40;99.90
52725;DHT22;38621;52.830;6.914;2023-03-13T01:28:29;8.40;99.90
52725;DHT22;38621;52.830;6.914;2023-03-13T01:30:55;8.50;99.90
52725;DHT22;38621;52.830;6.914;2023-03-13T01:33:21;8.40;99.90
52725;DHT22;38621;52.830;6.914;2023-03-13T01:35:47;8.50;99.90
52725;DHT22;38621;52.830;6.914;2023-03-13T01:38:13;8.50;99.90
52725;DHT22;38621;52.830;6.914;2023-03-13T01:40:47;8.50;99.90
52725;DHT22;38621;52.830;6.914;2023-03-13T01:43:27;8.50;99.90
52725;DHT22;38621;52.830;6.914;2023-03-13T01:59:29;8.50;99.90
52725;DHT22;38621;52.830;6.914;2023-03-13T02:01:59;8.60;99.90
52725;DHT22;38621;52.830;6.914;2023-03-13T02:04:30;8.60;99.90
52725;DHT22;38621;52.830;6.914;2023-03-13T02:07:03;8.60;99.90
52725;DHT22;38621;52.830;6.914;2023-03-13T02:09:31;8.60;99.90
52725;DHT22;38621;52.830;6.914;2023-03-13T02:12:01;8.70;99.90
52725;DHT22;38621;52.830;6.914;2023-03-13T02:14:30;8.70;99.90
52725;DHT22;38621;52.830;6.914;2023-03-13T02:16:57;8.60;99.90
52725;DHT22;38621;52.830;6.914;2023-03-13T02:22:18;8.70;99.90
52725;DHT22;38621;52.830;6.914;2023-03-13T02:27:40;8.60;99.90
52725;DHT22;38621;52.830;6.914;2023-03-13T02:30:08;8.60;99.90
52725;DHT22;38621;52.830;6.914;2023-03-13T02:32:34;8.50;99.90
52725;DHT22;38621;52.830;6.914;2023-03-13T02:35:07;8.50;99.90
52725;DHT22;38621;52.830;6.914;2023-03-13T02:37:35;8.50;99.90
52725;DHT22;38621;52.830;6.914;2023-03-13T02:40:05;8.50;99.90
52725;DHT22;38621;52.830;6.914;2023-03-13T02:42:36;8.60;99.90
52725;DHT22;38621;52.830;6.914;2023-03-13T02:45:03;8.60;99.90
52725;DHT22;38621;52.830;6.914;2023-03-13T02:47:29;8.60;99.90
52725;DHT22;38621;52.830;6.914;2023-03-13T02:49:55;8.60;99.90
52725;DHT22;38621;52.830;6.914;2023-03-13T02:52:29;8.60;99.90
52725;DHT22;38621;52.830;6.914;2023-03-13T02:55:02;8.60;99.90
52725;DHT22;38621;52.830;6.914;2023-03-13T02:57:29;8.60;99.90
52725;DHT22;38621;52.830;6.914;2023-03-13T02:59:56;8.60;99.90
52725;DHT22;38621;52.830;6.914;2023-03-13T03:02:22;8.70;99.90
52725;DHT22;38621;52.830;6.914;2023-03-13T03:04:47;8.70;99.90
52725;DHT22;38621;52.830;6.914;2023-03-13T03:07:13;8.70;99.90
52725;DHT22;38621;52.830;6.914;2023-03-13T03:09:39;8.70;99.90
52725;DHT22;38621;52.830;6.914;2023-03-13T03:12:05;8.70;99.90
52725;DHT22;38621;52.830;6.914;2023-03-13T03:14:31;8.70;99.90
52725;DHT22;38621;52.830;6.914;2023-03-13T03:16:56;8.80;99.90
52725;DHT22;38621;52.830;6.914;2023-03-13T03:19:22;8.80;99.90
52725;DHT22;38621;52.830;6.914;2023-03-13T03:21:47;8.80;99.90
52725;DHT22;38621;52.830;6.914;2023-03-13T03:24:14;8.80;99.90
52725;DHT22;38621;52.830;6.914;2023-03-13T03:26:40;8.80;99.90
52725;DHT22;38621;52.830;6.914;2023-03-13T03:29:05;8.90;99.90
52725;DHT22;38621;52.830;6.914;2023-03-13T03:31:33;8.90;99.90
52725;DHT22;38621;52.830;6.914;2023-03-13T03:33:59;8.90;99.90
52725;DHT22;38621;52.830;6.914;2023-03-13T03:36:25;8.90;99.90
52725;DHT22;38621;52.830;6.914;2023-03-13T03:38:51;8.90;99.90
52725;DHT22;38621;52.830;6.914;2023-03-13T03:41:17;9.00;99.90
52725;DHT22;38621;52.830;6.914;2023-03-13T03:43:44;9.10;99.90
52725;DHT22;38621;52.830;6.914;2023-03-13T03:46:10;9.10;99.90
52725;DHT22;38621;52.830;6.914;2023-03-13T03:48:36;9.10;99.90
52725;DHT22;38621;52.830;6.914;2023-03-13T03:51:02;9.20;99.90
52725;DHT22;38621;52.830;6.914;2023-03-13T03:53:28;9.20;99.90
52725;DHT22;38621;52.830;6.914;2023-03-13T03:55:54;9.20;99.90
52725;DHT22;38621;52.830;6.914;2023-03-13T03:58:19;9.30;99.90
52725;DHT22;38621;52.830;6.914;2023-03-13T04:00:46;9.30;99.90
52725;DHT22;38621;52.830;6.914;2023-03-13T04:03:13;9.30;99.90
52725;DHT22;38621;52.830;6.914;2023-03-13T04:05:39;9.30;99.90
52725;DHT22;38621;52.830;6.914;2023-03-13T04:08:06;9.30;99.90
52725;DHT22;38621;52.830;6.914;2023-03-13T04:10:32;9.30;99.90
52725;DHT22;38621;52.830;6.914;2023-03-13T04:12:58;9.40;99.90
52725;DHT22;38621;52.830;6.914;2023-03-13T04:15:23;9.40;99.90
52725;DHT22;38621;52.830;6.914;2023-03-13T04:17:49;9.50;99.90
52725;DHT22;38621;52.830;6.914;2023-03-13T04:20:15;9.50;99.90
52725;DHT22;38621;52.830;6.914;2023-03-13T04:22:41;9.50;99.90
52725;DHT22;38621;52.830;6.914;2023-03-13T04:25:08;9.60;99.90
52725;DHT22;38621;52.830;6.914;2023-03-13T04:27:34;9.60;99.90
52725;DHT22;38621;52.830;6.914;2023-03-13T04:30:00;9.60;99.90
52725;DHT22;38621;52.830;6.914;2023-03-13T04:32:26;9.60;99.90
52725;DHT22;38621;52.830;6.914;2023-03-13T04:34:51;9.60;99.90
52725;DHT22;38621;52.830;6.914;2023-03-13T04:37:18;9.70;99.90
52725;DHT22;38621;52.830;6.914;2023-03-13T04:39:43;9.70;99.90
52725;DHT22;38621;52.830;6.914;2023-03-13T04:42:10;9.80;99.90
52725;DHT22;38621;52.830;6.914;2023-03-13T04:44:36;9.80;99.90
52725;DHT22;38621;52.830;6.914;2023-03-13T04:47:02;9.80;99.90
52725;DHT22;38621;52.830;6.914;2023-03-13T04:49:28;9.90;99.90
52725;DHT22;38621;52.830;6.914;2023-03-13T04:51:54;9.90;99.90
52725;DHT22;38621;52.830;6.914;2023-03-13T04:54:20;9.90;99.90
52725;DHT22;38621;52.830;6.914;2023-03-13T04:56:46;10.00;99.90
52725;DHT22;38621;52.830;6.914;2023-03-13T04:59:12;10.00;99.90
52725;DHT22;38621;52.830;6.914;2023-03-13T05:01:39;10.00;99.90
52725;DHT22;38621;52.830;6.914;2023-03-13T05:04:05;10.00;99.90
52725;DHT22;38621;52.830;6.914;2023-03-13T05:06:30;10.10;99.90
52725;DHT22;38621;52.830;6.914;2023-03-13T05:08:56;10.10;99.90
52725;DHT22;38621;52.830;6.914;2023-03-13T05:11:22;10.10;99.90
52725;DHT22;38621;52.830;6.914;2023-03-13T05:13:47;10.20;99.90
52725;DHT22;38621;52.830;6.914;2023-03-13T05:16:13;10.20;99.90
52725;DHT22;38621;52.830;6.914;2023-03-13T05:18:39;10.30;99.90
52725;DHT22;38621;52.830;6.914;2023-03-13T05:21:05;10.30;99.90
52725;DHT22;38621;52.830;6.914;2023-03-13T05:23:31;10.30;99.90
52725;DHT22;38621;52.830;6.914;2023-03-13T05:25:57;10.30;99.90
52725;DHT22;38621;52.830;6.914;2023-03-13T05:28:22;10.40;99.90
52725;DHT22;38621;52.830;6.914;2023-03-13T05:30:48;10.40;99.90
52725;DHT22;38621;52.830;6.914;2023-03-13T05:33:14;10.40;99.90
52725;DHT22;38621;52.830;6.914;2023-03-13T05:35:40;10.40;99.90
52725;DHT22;38621;52.830;6.914;2023-03-13T05:38:05;10.40;99.90
52725;DHT22;38621;52.830;6.914;2023-03-13T05:40:31;10.50;99.90
52725;DHT22;38621;52.830;6.914;2023-03-13T05:42:56;10.50;99.90
52725;DHT22;38621;52.830;6.914;2023-03-13T05:45:22;10.60;99.90
52725;DHT22;38621;52.830;6.914;2023-03-13T05:47:48;10.60;99.90
52725;DHT22;38621;52.830;6.914;2023-03-13T05:50:14;10.60;99.90
52725;DHT22;38621;52.830;6.914;2023-03-13T05:52:39;10.70;99.90
52725;DHT22;38621;52.830;6.914;2023-03-13T05:55:05;10.70;99.90
52725;DHT22;38621;52.830;6.914;2023-03-13T05:57:31;10.70;99.90
52725;DHT22;38621;52.830;6.914;2023-03-13T05:59:57;10.70;99.90
52725;DHT22;38621;52.830;6.914;2023-03-13T06:02:24;10.70;99.90
52725;DHT22;38621;52.830;6.914;2023-03-13T06:04:49;10.80;99.90
52725;DHT22;38621;52.830;6.914;2023-03-13T06:07:15;10.80;99.90
52725;DHT22;38621;52.830;6.914;2023-03-13T06:09:41;10.80;99.90
52725;DHT22;38621;52.830;6.914;2023-03-13T06:12:08;10.90;99.90
52725;DHT22;38621;52.830;6.914;2023-03-13T06:14:34;10.90;99.90
52725;DHT22;38621;52.830;6.914;2023-03-13T06:16:59;10.90;99.90
52725;DHT22;38621;52.830;6.914;2023-03-13T06:19:25;10.90;99.90
52725;DHT22;38621;52.830;6.914;2023-03-13T06:21:51;11.00;99.90
52725;DHT22;38621;52.830;6.914;2023-03-13T06:24:17;11.00;99.90
52725;DHT22;38621;52.830;6.914;2023-03-13T06:26:43;11.10;99.90
52725;DHT22;38621;52.830;6.914;2023-03-13T06:29:10;11.20;99.90
52725;DHT22;38621;52.830;6.914;2023-03-13T06:31:35;11.20;99.90
52725;DHT22;38621;52.830;6.914;2023-03-13T06:34:01;11.30;99.90
52725;DHT22;38621;52.830;6.914;2023-03-13T06:36:27;11.30;99.90
52725;DHT22;38621;52.830;6.914;2023-03-13T06:38:52;11.30;99.90
52725;DHT22;38621;52.830;6.914;2023-03-13T06:41:18;11.30;99.90
52725;DHT22;38621;52.830;6.914;2023-03-13T06:43:44;11.30;99.90
52725;DHT22;38621;52.830;6.914;2023-03-13T06:46:21;11.40;99.90
52725;DHT22;38621;52.830;6.914;2023-03-13T06:48:48;11.40;99.90
52725;DHT22;38621;52.830;6.914;2023-03-13T06:51:16;11.50;99.90
52725;DHT22;38621;52.830;6.914;2023-03-13T06:53:42;11.50;99.90
52725;DHT22;38621;52.830;6.914;2023-03-13T06:56:09;11.60;99.90
52725;DHT22;38621;52.830;6.914;2023-03-13T06:58:35;11.60;99.90
52725;DHT22;38621;52.830;6.914;2023-03-13T07:01:08;11.70;99.90
52725;DHT22;38621;52.830;6.914;2023-03-13T07:03:35;11.70;99.90
52725;DHT22;38621;52.830;6.914;2023-03-13T07:06:02;11.80;99.90
52725;DHT22;38621;52.830;6.914;2023-03-13T07:08:28;11.80;99.90
52725;DHT22;38621;52.830;6.914;2023-03-13T07:10:58;11.90;99.90
52725;DHT22;38621;52.830;6.914;2023-03-13T07:13:25;11.90;99.90
52725;DHT22;38621;52.830;6.914;2023-03-13T07:15:50;12.00;99.90
52725;DHT22;38621;52.830;6.914;2023-03-13T07:18:16;12.00;99.90
52725;DHT22;38621;52.830;6.914;2023-03-13T07:20:42;12.00;99.90
52725;DHT22;38621;52.830;6.914;2023-03-13T07:23:08;12.00;99.90
52725;DHT22;38621;52.830;6.914;2023-03-13T07:25:34;12.00;99.90
52725;DHT22;38621;52.830;6.914;2023-03-13T07:28:00;12.00;99.90
52725;DHT22;38621;52.830;6.914;2023-03-13T07:30:26;12.10;99.90
52725;DHT22;38621;52.830;6.914;2023-03-13T07:32:52;12.10;99.90
52725;DHT22;38621;52.830;6.914;2023-03-13T07:35:18;12.10;99.90
52725;DHT22;38621;52.830;6.914;2023-03-13T07:37:43;12.20;99.90
52725;DHT22;38621;52.830;6.914;2023-03-13T07:40:10;12.20;99.90
52725;DHT22;38621;52.830;6.914;2023-03-13T07:42:40;12.20;99.90
52725;DHT22;38621;52.830;6.914;2023-03-13T07:45:07;12.30;99.90
52725;DHT22;38621;52.830;6.914;2023-03-13T07:47:35;12.30;99.90
52725;DHT22;38621;52.830;6.914;2023-03-13T07:50:02;12.30;99.90
52725;DHT22;38621;52.830;6.914;2023-03-13T07:52:28;12.30;99.90
52725;DHT22;38621;52.830;6.914;2023-03-13T07:54:53;12.30;99.90
52725;DHT22;38621;52.830;6.914;2023-03-13T07:57:19;12.30;99.90
52725;DHT22;38621;52.830;6.914;2023-03-13T07:59:45;12.30;99.90
52725;DHT22;38621;52.830;6.914;2023-03-13T08:02:11;12.30;99.90
52725;DHT22;38621;52.830;6.914;2023-03-13T08:04:39;12.40;99.90
52725;DHT22;38621;52.830;6.914;2023-03-13T08:07:11;12.30;99.90
52725;DHT22;38621;52.830;6.914;2023-03-13T08:09:36;12.40;99.90
52725;DHT22;38621;52.830;6.914;2023-03-13T08:12:02;12.30;99.90
52725;DHT22;38621;52.830;6.914;2023-03-13T08:14:28;12.20;99.90
52725;DHT22;38621;52.830;6.914;2023-03-13T08:16:54;12.10;99.90
52725;DHT22;38621;52.830;6.914;2023-03-13T08:19:20;12.00;99.90
52725;DHT22;38621;52.830;6.914;2023-03-13T08:21:45;12.00;99.90
52725;DHT22;38621;52.830;6.914;2023-03-13T08:24:11;11.80;99.90
52725;DHT22;38621;52.830;6.914;2023-03-13T08:26:40;11.70;99.90
52725;DHT22;38621;52.830;6.914;2023-03-13T08:29:09;11.70;99.90
52725;DHT22;38621;52.830;6.914;2023-03-13T08:31:38;11.70;99.90
52725;DHT22;38621;52.830;6.914;2023-03-13T08:34:03;11.60;99.90
52725;DHT22;38621;52.830;6.914;2023-03-13T08:36:34;11.70;99.90
52725;DHT22;38621;52.830;6.914;2023-03-13T08:39:08;11.70;99.90
52725;DHT22;38621;52.830;6.914;2023-03-13T08:41:35;11.70;99.90
52725;DHT22;38621;52.830;6.914;2023-03-13T08:44:02;11.80;99.90
52725;DHT22;38621;52.830;6.914;2023-03-13T08:46:29;12.00;99.90
52725;DHT22;38621;52.830;6.914;2023-03-13T08:48:55;12.10;99.90
52725;DHT22;38621;52.830;6.914;2023-03-13T08:51:23;12.20;99.90
52725;DHT22;38621;52.830;6.914;2023-03-13T08:53:49;12.20;99.90
52725;DHT22;38621;52.830;6.914;2023-03-13T08:56:18;12.30;99.90
52725;DHT22;38621;52.830;6.914;2023-03-13T08:58:49;12.30;99.90
52725;DHT22;38621;52.830;6.914;2023-03-13T09:01:15;12.30;99.90
52725;DHT22;38621;52.830;6.914;2023-03-13T09:03:41;12.40;99.90
52725;DHT22;38621;52.830;6.914;2023-03-13T09:06:08;12.50;99.90
52725;DHT22;38621;52.830;6.914;2023-03-13T09:08:35;12.70;99.90
52725;DHT22;38621;52.830;6.914;2023-03-13T09:11:06;12.80;99.90
52725;DHT22;38621;52.830;6.914;2023-03-13T09:13:34;13.00;99.90
52725;DHT22;38621;52.830;6.914;2023-03-13T09:16:02;13.10;99.90
52725;DHT22;38621;52.830;6.914;2023-03-13T09:18:28;13.30;99.90
52725;DHT22;38621;52.830;6.914;2023-03-13T09:20:54;13.50;99.90
52725;DHT22;38621;52.830;6.914;2023-03-13T09:23:21;13.50;99.90
52725;DHT22;38621;52.830;6.914;2023-03-13T09:25:50;13.50;99.90
52725;DHT22;38621;52.830;6.914;2023-03-13T09:28:16;13.40;99.90
52725;DHT22;38621;52.830;6.914;2023-03-13T09:30:42;13.30;99.90
52725;DHT22;38621;52.830;6.914;2023-03-13T09:33:07;13.30;99.90
52725;DHT22;38621;52.830;6.914;2023-03-13T09:35:33;13.30;99.90
52725;DHT22;38621;52.830;6.914;2023-03-13T09:37:59;13.20;99.90
52725;DHT22;38621;52.830;6.914;2023-03-13T09:40:25;13.10;99.90
52725;DHT22;38621;52.830;6.914;2023-03-13T09:42:55;13.10;99.90
52725;DHT22;38621;52.830;6.914;2023-03-13T09:45:35;13.00;99.90
52725;DHT22;38621;52.830;6.914;2023-03-13T09:50:40;13.10;99.90
52725;DHT22;38621;52.830;6.914;2023-03-13T09:53:14;13.10;99.90
52725;DHT22;38621;52.830;6.914;2023-03-13T09:55:42;13.20;99.90
52725;DHT22;38621;52.830;6.914;2023-03-13T09:58:21;13.20;99.90
52725;DHT22;38621;52.830;6.914;2023-03-13T10:00:51;13.20;99.90
52725;DHT22;38621;52.830;6.914;2023-03-13T10:03:22;13.30;99.90
52725;DHT22;38621;52.830;6.914;2023-03-13T10:05:56;13.30;99.90
52725;DHT22;38621;52.830;6.914;2023-03-13T10:08:24;13.30;99.90
52725;DHT22;38621;52.830;6.914;2023-03-13T10:13:48;13.40;99.90
52725;DHT22;38621;52.830;6.914;2023-03-13T10:16:37;13.40;99.90
52725;DHT22;38621;52.830;6.914;2023-03-13T10:19:14;13.60;99.90
52725;DHT22;38621;52.830;6.914;2023-03-13T10:21:42;13.80;99.90
52725;DHT22;38621;52.830;6.914;2023-03-13T10:26:59;13.70;99.90
52725;DHT22;38621;52.830;6.914;2023-03-13T10:29:25;13.70;99.90
52725;DHT22;38621;52.830;6.914;2023-03-13T10:32:14;14.00;99.90
52725;DHT22;38621;52.830;6.914;2023-03-13T10:34:59;14.10;99.90
52725;DHT22;38621;52.830;6.914;2023-03-13T10:37:31;14.10;99.90
52725;DHT22;38621;52.830;6.914;2023-03-13T10:40:25;14.00;99.90
52725;DHT22;38621;52.830;6.914;2023-03-13T10:42:53;14.00;99.90
52725;DHT22;38621;52.830;6.914;2023-03-13T10:45:23;14.00;99.90
52725;DHT22;38621;52.830;6.914;2023-03-13T10:47:54;14.00;99.90
52725;DHT22;38621;52.830;6.914;2023-03-13T10:50:23;14.00;99.90
52725;DHT22;38621;52.830;6.914;2023-03-13T10:52:49;13.90;99.90
52725;DHT22;38621;52.830;6.914;2023-03-13T10:55:20;14.00;99.90
52725;DHT22;38621;52.830;6.914;2023-03-13T10:57:56;14.10;99.90
52725;DHT22;38621;52.830;6.914;2023-03-13T11:00:37;14.10;99.90
52725;DHT22;38621;52.830;6.914;2023-03-13T11:05:42;14.20;99.90
52725;DHT22;38621;52.830;6.914;2023-03-13T11:10:58;14.40;99.90
52725;DHT22;38621;52.830;6.914;2023-03-13T11:13:29;14.40;99.90
52725;DHT22;38621;52.830;6.914;2023-03-13T11:16:05;14.40;99.90
52725;DHT22;38621;52.830;6.914;2023-03-13T11:21:07;14.60;99.90
52725;DHT22;38621;52.830;6.914;2023-03-13T11:23:46;14.70;99.90
52725;DHT22;38621;52.830;6.914;2023-03-13T11:26:34;14.90;99.90
52725;DHT22;38621;52.830;6.914;2023-03-13T11:29:22;15.00;99.90
52725;DHT22;38621;52.830;6.914;2023-03-13T11:31:59;15.20;99.90
52725;DHT22;38621;52.830;6.914;2023-03-13T11:34:41;15.40;99.90
52725;DHT22;38621;52.830;6.914;2023-03-13T11:37:13;15.50;99.90
52725;DHT22;38621;52.830;6.914;2023-03-13T11:40:20;15.50;99.90
52725;DHT22;38621;52.830;6.914;2023-03-13T11:43:14;15.60;99.90
52725;DHT22;38621;52.830;6.914;2023-03-13T11:46:14;15.50;99.90
52725;DHT22;38621;52.830;6.914;2023-03-13T11:59:12;15.80;99.90
52725;DHT22;38621;52.830;6.914;2023-03-13T12:01:44;16.00;99.90
52725;DHT22;38621;52.830;6.914;2023-03-13T12:09:25;16.30;99.90
52725;DHT22;38621;52.830;6.914;2023-03-13T12:12:02;16.20;99.90
52725;DHT22;38621;52.830;6.914;2023-03-13T12:22:54;16.20;99.90
52725;DHT22;38621;52.830;6.914;2023-03-13T12:25:24;16.20;99.90
52725;DHT22;38621;52.830;6.914;2023-03-13T12:27:57;16.10;99.90
52725;DHT22;38621;52.830;6.914;2023-03-13T12:30:44;16.10;99.90
52725;DHT22;38621;52.830;6.914;2023-03-13T12:33:27;16.40;99.90
52725;DHT22;38621;52.830;6.914;2023-03-13T12:36:12;16.40;99.90
52725;DHT22;38621;52.830;6.914;2023-03-13T12:38:54;16.40;99.90
52725;DHT22;38621;52.830;6.914;2023-03-13T12:41:34;16.30;99.90
52725;DHT22;38621;52.830;6.914;2023-03-13T12:44:09;16.40;99.90
52725;DHT22;38621;52.830;6.914;2023-03-13T12:46:53;16.40;99.90
52725;DHT22;38621;52.830;6.914;2023-03-13T13:00:17;16.90;99.90
52725;DHT22;38621;52.830;6.914;2023-03-13T13:02:44;16.70;99.90
52725;DHT22;38621;52.830;6.914;2023-03-13T13:05:19;16.70;99.90
52725;DHT22;38621;52.830;6.914;2023-03-13T13:07:52;16.60;99.90
52725;DHT22;38621;52.830;6.914;2023-03-13T13:10:24;16.70;99.90
52725;DHT22;38621;52.830;6.914;2023-03-13T13:15:58;16.80;99.90
52725;DHT22;38621;52.830;6.914;2023-03-13T13:18:26;16.70;99.90
52725;DHT22;38621;52.830;6.914;2023-03-13T13:23:40;16.70;99.90
52725;DHT22;38621;52.830;6.914;2023-03-13T13:28:56;16.40;99.90
52725;DHT22;38621;52.830;6.914;2023-03-13T13:31:55;16.20;99.90
52725;DHT22;38621;52.830;6.914;2023-03-13T13:39:43;15.80;99.90
52725;DHT22;38621;52.830;6.914;2023-03-13T13:47:40;16.10;99.90
52725;DHT22;38621;52.830;6.914;2023-03-13T13:50:23;16.50;99.90
52725;DHT22;38621;52.830;6.914;2023-03-13T13:52:49;16.70;99.90
52725;DHT22;38621;52.830;6.914;2023-03-13T13:55:34;16.70;99.90
52725;DHT22;38621;52.830;6.914;2023-03-13T13:58:17;16.70;99.90
52725;DHT22;38621;52.830;6.914;2023-03-13T14:00:50;16.70;99.90
52725;DHT22;38621;52.830;6.914;2023-03-13T14:03:26;16.70;99.90
52725;DHT22;38621;52.830;6.914;2023-03-13T14:06:22;16.80;99.90
52725;DHT22;38621;52.830;6.914;2023-03-13T14:08:53;16.70;99.90
52725;DHT22;38621;52.830;6.914;2023-03-13T14:11:34;16.40;99.90
52725;DHT22;38621;52.830;6.914;2023-03-13T14:14:14;16.30;99.90
52725;DHT22;38621;52.830;6.914;2023-03-13T14:16:49;16.40;99.90
52725;DHT22;38621;52.830;6.914;2023-03-13T14:19:29;16.50;99.90
52725;DHT22;38621;52.830;6.914;2023-03-13T14:22:04;16.40;99.90
52725;DHT22;38621;52.830;6.914;2023-03-13T14:24:30;16.20;99.90
52725;DHT22;38621;52.830;6.914;2023-03-13T14:26:56;16.00;99.90
52725;DHT22;38621;52.830;6.914;2023-03-13T14:29:21;15.90;99.90
52725;DHT22;38621;52.830;6.914;2023-03-13T14:31:58;15.80;99.90
52725;DHT22;38621;52.830;6.914;2023-03-13T14:34:26;15.80;99.90
52725;DHT22;38621;52.830;6.914;2023-03-13T14:36:53;15.80;99.90
52725;DHT22;38621;52.830;6.914;2023-03-13T14:39:43;16.00;99.90
52725;DHT22;38621;52.830;6.914;2023-03-13T14:42:17;16.00;99.90
52725;DHT22;38621;52.830;6.914;2023-03-13T14:44:44;15.90;99.90
52725;DHT22;38621;52.830;6.914;2023-03-13T14:47:30;16.00;99.90
52725;DHT22;38621;52.830;6.914;2023-03-13T14:50:25;16.00;99.90
52725;DHT22;38621;52.830;6.914;2023-03-13T14:52:58;16.00;99.90
52725;DHT22;38621;52.830;6.914;2023-03-13T14:55:28;16.00;99.90
52725;DHT22;38621;52.830;6.914;2023-03-13T14:57:56;15.90;99.90
52725;DHT22;38621;52.830;6.914;2023-03-13T15:00:52;16.00;99.90
52725;DHT22;38621;52.830;6.914;2023-03-13T15:03:18;16.00;99.90
52725;DHT22;38621;52.830;6.914;2023-03-13T15:08:17;15.80;99.90
52725;DHT22;38621;52.830;6.914;2023-03-13T15:10:43;15.90;99.90
52725;DHT22;38621;52.830;6.914;2023-03-13T15:13:34;15.90;99.90
52725;DHT22;38621;52.830;6.914;2023-03-13T15:16:01;16.00;99.90
52725;DHT22;38621;52.830;6.914;2023-03-13T15:18:29;16.00;99.90
52725;DHT22;38621;52.830;6.914;2023-03-13T15:21:39;15.90;99.90
52725;DHT22;38621;52.830;6.914;2023-03-13T15:23:53;15.80;99.90
52725;DHT22;38621;52.830;6.914;2023-03-13T15:26:20;15.90;99.90
52725;DHT22;38621;52.830;6.914;2023-03-13T15:28:46;15.90;99.90
52725;DHT22;38621;52.830;6.914;2023-03-13T15:31:12;16.00;99.90
52725;DHT22;38621;52.830;6.914;2023-03-13T15:33:39;15.90;99.90
52725;DHT22;38621;52.830;6.914;2023-03-13T15:36:05;15.90;99.90
52725;DHT22;38621;52.830;6.914;2023-03-13T15:38:31;15.80;99.90
52725;DHT22;38621;52.830;6.914;2023-03-13T15:40:57;15.80;99.90
52725;DHT22;38621;52.830;6.914;2023-03-13T15:43:22;15.90;99.90
52725;DHT22;38621;52.830;6.914;2023-03-13T15:45:49;15.90;99.90
52725;DHT22;38621;52.830;6.914;2023-03-13T15:48:20;16.00;99.90
52725;DHT22;38621;52.830;6.914;2023-03-13T15:50:50;15.90;99.90
52725;DHT22;38621;52.830;6.914;2023-03-13T15:53:22;15.70;99.90
52725;DHT22;38621;52.830;6.914;2023-03-13T15:55:51;15.60;99.90
52725;DHT22;38621;52.830;6.914;2023-03-13T15:58:17;15.50;99.90
52725;DHT22;38621;52.830;6.914;2023-03-13T16:00:44;15.50;99.90
52725;DHT22;38621;52.830;6.914;2023-03-13T16:03:24;15.40;99.90
52725;DHT22;38621;52.830;6.914;2023-03-13T16:05:51;15.30;99.90
52725;DHT22;38621;52.830;6.914;2023-03-13T16:08:25;15.20;99.90
52725;DHT22;38621;52.830;6.914;2023-03-13T16:10:52;15.20;99.90
52725;DHT22;38621;52.830;6.914;2023-03-13T16:13:18;15.20;99.90
52725;DHT22;38621;52.830;6.914;2023-03-13T16:15:45;15.20;99.90
52725;DHT22;38621;52.830;6.914;2023-03-13T16:18:22;15.10;99.90
52725;DHT22;38621;52.830;6.914;2023-03-13T16:20:51;15.10;99.90
52725;DHT22;38621;52.830;6.914;2023-03-13T16:23:17;15.10;99.90
52725;DHT22;38621;52.830;6.914;2023-03-13T16:25:44;15.00;99.90
52725;DHT22;38621;52.830;6.914;2023-03-13T16:28:11;14.90;99.90
52725;DHT22;38621;52.830;6.914;2023-03-13T16:30:39;14.90;99.90
52725;DHT22;38621;52.830;6.914;2023-03-13T16:33:06;14.90;99.90
52725;DHT22;38621;52.830;6.914;2023-03-13T16:35:32;14.90;99.90
52725;DHT22;38621;52.830;6.914;2023-03-13T16:37:58;14.80;99.90
52725;DHT22;38621;52.830;6.914;2023-03-13T16:40:33;14.80;99.90
52725;DHT22;38621;52.830;6.914;2023-03-13T16:42:59;14.70;99.90
52725;DHT22;38621;52.830;6.914;2023-03-13T16:45:26;14.60;99.90
52725;DHT22;38621;52.830;6.914;2023-03-13T16:47:51;14.50;99.90
52725;DHT22;38621;52.830;6.914;2023-03-13T16:50:34;14.60;99.90
52725;DHT22;38621;52.830;6.914;2023-03-13T16:53:01;14.50;99.90
52725;DHT22;38621;52.830;6.914;2023-03-13T16:55:27;14.40;99.90
52725;DHT22;38621;52.830;6.914;2023-03-13T16:57:57;14.40;99.90
52725;DHT22;38621;52.830;6.914;2023-03-13T17:00:25;14.30;99.90
52725;DHT22;38621;52.830;6.914;2023-03-13T17:02:51;14.30;99.90
52725;DHT22;38621;52.830;6.914;2023-03-13T17:05:18;14.30;99.90
52725;DHT22;38621;52.830;6.914;2023-03-13T17:07:46;14.30;99.90
52725;DHT22;38621;52.830;6.914;2023-03-13T17:10:20;14.10;99.90
52725;DHT22;38621;52.830;6.914;2023-03-13T17:12:46;14.00;99.90
52725;DHT22;38621;52.830;6.914;2023-03-13T17:15:12;13.90;99.90
52725;DHT22;38621;52.830;6.914;2023-03-13T17:17:38;13.80;99.90
52725;DHT22;38621;52.830;6.914;2023-03-13T17:20:04;13.60;99.90
52725;DHT22;38621;52.830;6.914;2023-03-13T17:22:31;13.50;99.90